Time;durP1;ratioP1;P1;durP2;ratioP2;P2;SDS_P1;SDS_P2;PMS_P1;PMS_P2;Temp;Humidity;BMP_temperature;BMP_pressure;BME280_temperature;BME280_humidity;BME280_pressure;Samples;Min_cycle;Max_cycle;Signal;HPM_P1;HPM_P2
2021/05/18 00:00:09;;;;;;;28.97;26.33;;;9.70;99.90;;;;;;5072956;28;20673;-76
2021/05/18 00:02:37;;;;;;;28.83;26.03;;;9.70;99.90;;;;;;5070453;28;20531;-75
2021/05/18 00:05:07;;;;;;;29.00;25.40;;;9.90;99.90;;;;;;5075555;28;20463;-76
2021/05/18 00:07:35;;;;;;;26.93;24.53;;;10.00;99.90;;;;;;5076744;28;20529;-76
2021/05/18 00:12:47;;;;;;;26.90;24.40;;;10.10;99.90;;;;;;5066724;28;20568;-77
2021/05/18 00:15:17;;;;;;;26.67;24.13;;;10.10;99.90;;;;;;5069787;28;20955;-76
2021/05/18 00:17:44;;;;;;;26.80;24.20;;;10.20;99.90;;;;;;5065363;28;20463;-77
2021/05/18 00:20:13;;;;;;;27.63;25.17;;;10.30;99.90;;;;;;5069728;28;20458;-76
2021/05/18 00:22:40;;;;;;;29.40;25.37;;;10.20;99.90;;;;;;5071514;28;20868;-75
2021/05/18 00:25:08;;;;;;;28.20;25.30;;;10.30;99.90;;;;;;5073217;28;20463;-75
2021/05/18 00:27:35;;;;;;;29.80;26.90;;;10.30;99.90;;;;;;5071623;28;20458;-73
2021/05/18 00:30:03;;;;;;;32.83;29.73;;;10.40;99.90;;;;;;5065165;28;20494;-73
2021/05/18 00:32:29;;;;;;;35.00;31.87;;;10.40;99.90;;;;;;5062793;28;20514;-76
2021/05/18 00:34:57;;;;;;;19.10;18.00;;;10.40;99.90;;;;;;5072643;28;20521;-75
2021/05/18 00:37:25;;;;;;;17.80;16.90;;;10.30;99.90;;;;;;5065091;28;20467;-78
2021/05/18 00:39:53;;;;;;;16.03;15.23;;;10.30;99.90;;;;;;5078012;28;20464;-75
2021/05/18 00:42:22;;;;;;;14.53;13.83;;;10.20;99.90;;;;;;5066219;28;21350;-77
2021/05/18 00:44:49;;;;;;;14.00;13.40;;;10.30;99.90;;;;;;5068904;28;20468;-75
2021/05/18 00:47:16;;;;;;;14.20;13.60;;;10.20;99.90;;;;;;5072597;28;20529;-76
2021/05/18 00:49:42;;;;;;;14.90;14.20;;;10.00;99.90;;;;;;5074366;28;20473;-75
2021/05/18 00:52:10;;;;;;;13.87;13.27;;;10.10;99.90;;;;;;5079181;28;20459;-75
2021/05/18 00:54:41;;;;;;;13.40;12.80;;;10.10;99.90;;;;;;5074530;28;20462;-76
2021/05/18 00:59:53;;;;;;;13.10;12.50;;;10.10;99.90;;;;;;5055506;28;20463;-77
2021/05/18 01:02:21;;;;;;;13.20;12.60;;;10.10;99.90;;;;;;5059352;28;20528;-76
2021/05/18 01:04:48;;;;;;;12.67;12.17;;;10.10;99.90;;;;;;5073228;28;20882;-77
2021/05/18 01:07:15;;;;;;;12.60;12.10;;;10.10;99.90;;;;;;5069261;28;20455;-75
2021/05/18 01:09:42;;;;;;;12.80;12.30;;;10.10;99.90;;;;;;5073109;28;20500;-77
2021/05/18 01:12:08;;;;;;;14.00;13.40;;;10.00;99.90;;;;;;5072255;28;20485;-77
2021/05/18 01:14:35;;;;;;;14.43;13.83;;;10.10;99.90;;;;;;5059021;28;20554;-75
2021/05/18 01:17:01;;;;;;;13.80;13.20;;;10.10;99.90;;;;;;5059802;28;20942;-78
2021/05/18 01:19:31;;;;;;;12.77;12.27;;;10.10;99.90;;;;;;5069262;28;20474;-75
2021/05/18 01:22:00;;;;;;;12.23;11.73;;;10.10;99.90;;;;;;5065582;28;20506;-76
2021/05/18 01:24:27;;;;;;;12.83;12.33;;;10.00;99.90;;;;;;5073397;28;20466;-76
2021/05/18 01:26:53;;;;;;;12.17;11.67;;;10.00;99.90;;;;;;5065713;28;20508;-76
2021/05/18 01:29:22;;;;;;;11.80;11.30;;;9.90;99.90;;;;;;5061687;28;20492;-76
2021/05/18 01:31:51;;;;;;;12.40;11.90;;;9.80;99.90;;;;;;5067558;28;20483;-76
2021/05/18 01:34:19;;;;;;;12.20;11.70;;;9.80;99.90;;;;;;5061556;28;20828;-76
2021/05/18 01:36:46;;;;;;;11.80;11.30;;;9.70;99.90;;;;;;5071509;28;20471;-76
2021/05/18 01:45:12;;;;;;;13.63;13.03;;;9.60;99.90;;;;;;5110781;28;20601;-77
2021/05/18 01:47:39;;;;;;;13.07;12.57;;;9.60;99.90;;;;;;5112353;28;20456;-79
2021/05/18 01:50:08;;;;;;;12.93;12.43;;;9.60;99.90;;;;;;5075820;28;20474;-75
2021/05/18 01:52:34;;;;;;;13.00;12.50;;;9.60;99.90;;;;;;5078265;28;20964;-75
2021/05/18 01:55:00;;;;;;;14.10;13.50;;;9.60;99.90;;;;;;5071388;28;20962;-76
2021/05/18 01:57:28;;;;;;;14.97;14.27;;;9.50;99.90;;;;;;5080237;28;20526;-76
2021/05/18 01:59:55;;;;;;;13.50;12.90;;;9.60;99.90;;;;;;5076305;28;20461;-77
2021/05/18 02:02:22;;;;;;;12.70;12.20;;;9.50;99.90;;;;;;5075655;28;20521;-77
2021/05/18 02:04:51;;;;;;;12.57;12.07;;;9.50;99.90;;;;;;5075087;28;20463;-78
2021/05/18 02:07:22;;;;;;;13.40;12.80;;;9.60;99.90;;;;;;5074994;28;20469;-76
2021/05/18 02:09:48;;;;;;;12.70;12.20;;;9.50;99.90;;;;;;5072018;28;20471;-77
2021/05/18 02:12:15;;;;;;;12.83;12.33;;;9.50;99.90;;;;;;5075693;28;20460;-75
2021/05/18 02:14:45;;;;;;;12.87;12.37;;;9.60;99.90;;;;;;5072042;28;20463;-75
2021/05/18 02:17:17;;;;;;;13.43;12.83;;;9.60;99.90;;;;;;5075029;28;20465;-75
2021/05/18 02:19:58;;;;;;;12.70;12.20;;;9.70;99.90;;;;;;5075380;28;20463;-75
2021/05/18 02:25:12;;;;;;;13.47;12.87;;;9.60;99.90;;;;;;5071501;28;21054;-75
2021/05/18 02:27:38;;;;;;;13.30;12.70;;;9.60;99.90;;;;;;5076183;28;20470;-75
2021/05/18 02:30:08;;;;;;;12.90;12.40;;;9.60;99.90;;;;;;5074389;28;20974;-75
2021/05/18 02:32:35;;;;;;;13.50;12.90;;;9.60;99.90;;;;;;5070828;28;20653;-75
2021/05/18 02:35:03;;;;;;;13.80;13.20;;;9.70;99.90;;;;;;5075166;28;20461;-74
2021/05/18 02:37:31;;;;;;;13.53;12.93;;;9.70;99.90;;;;;;5072815;28;20461;-75
2021/05/18 02:39:58;;;;;;;13.23;12.67;;;9.70;99.90;;;;;;5074389;28;20465;-76
2021/05/18 02:42:25;;;;;;;13.57;12.97;;;9.90;99.90;;;;;;5072737;28;20513;-73
2021/05/18 02:44:57;;;;;;;13.90;13.30;;;9.80;99.90;;;;;;5077804;28;20800;-75
2021/05/18 02:50:12;;;;;;;13.60;13.00;;;9.80;99.90;;;;;;5070384;28;20484;-78
2021/05/18 02:52:41;;;;;;;13.63;13.03;;;9.80;99.90;;;;;;5064502;28;20832;-75
2021/05/18 02:55:10;;;;;;;13.57;12.97;;;9.90;99.90;;;;;;5053940;28;20872;-75
2021/05/18 02:57:38;;;;;;;12.83;12.33;;;9.80;99.90;;;;;;5062087;28;20544;-75
2021/05/18 03:00:08;;;;;;;12.77;12.27;;;10.00;99.90;;;;;;5062494;28;20476;-74
2021/05/18 03:02:35;;;;;;;12.53;12.03;;;10.00;99.90;;;;;;5061061;28;20468;-75
2021/05/18 03:05:03;;;;;;;12.17;11.67;;;10.00;99.90;;;;;;5065691;28;20606;-78
2021/05/18 03:07:29;;;;;;;12.57;12.07;;;10.00;99.90;;;;;;5058584;28;20478;-75
2021/05/18 03:09:56;;;;;;;11.90;11.40;;;10.00;99.90;;;;;;5060748;28;20465;-74
2021/05/18 03:12:22;;;;;;;12.40;11.90;;;10.00;99.90;;;;;;5060438;28;20940;-75
2021/05/18 03:14:49;;;;;;;11.67;11.17;;;10.10;99.90;;;;;;5059695;28;20480;-74
2021/05/18 03:17:16;;;;;;;12.40;11.90;;;10.10;99.90;;;;;;5061953;28;20465;-75
2021/05/18 03:19:43;;;;;;;12.27;11.77;;;10.10;99.90;;;;;;5056986;28;20478;-74
2021/05/18 03:22:09;;;;;;;12.53;12.03;;;10.00;99.90;;;;;;5062529;28;20488;-78
2021/05/18 03:24:36;;;;;;;11.97;11.47;;;10.00;99.90;;;;;;5059168;28;20471;-75
2021/05/18 03:27:03;;;;;;;12.70;12.20;;;9.90;99.90;;;;;;5062065;28;20501;-76
2021/05/18 03:29:31;;;;;;;11.90;11.40;;;10.00;99.90;;;;;;5054864;28;20493;-77
2021/05/18 03:34:43;;;;;;;12.07;11.57;;;10.00;99.90;;;;;;5061012;28;20471;-75
2021/05/18 03:37:14;;;;;;;13.40;12.80;;;9.90;99.90;;;;;;5056592;28;20484;-76
2021/05/18 03:39:41;;;;;;;12.47;11.97;;;9.90;99.90;;;;;;5062615;28;20574;-74
2021/05/18 03:42:13;;;;;;;12.23;11.73;;;9.90;99.90;;;;;;5056338;28;21109;-76
2021/05/18 03:45:06;;;;;;;13.43;12.83;;;10.00;99.90;;;;;;5056617;28;20940;-74
2021/05/18 03:53:17;;;;;;;13.40;12.80;;;10.00;99.90;;;;;;5059570;28;20468;-75
2021/05/18 03:58:36;;;;;;;13.70;13.10;;;10.00;99.90;;;;;;5059101;28;20509;-74
2021/05/18 04:04:10;;;;;;;13.50;12.90;;;9.90;99.90;;;;;;5019978;28;20460;-75
2021/05/18 04:17:38;;;;;;;14.60;13.90;;;10.00;99.90;;;;;;5059354;28;20497;-74
2021/05/18 04:20:17;;;;;;;14.90;14.20;;;10.10;99.90;;;;;;5058472;28;20494;-77
2021/05/18 04:23:08;;;;;;;15.43;14.73;;;10.20;99.90;;;;;;5064067;28;21202;-75
2021/05/18 04:25:59;;;;;;;14.00;13.40;;;10.20;99.90;;;;;;5058134;28;20462;-77
2021/05/18 04:39:37;;;;;;;13.60;13.00;;;10.10;99.90;;;;;;5060288;28;20858;-77
2021/05/18 04:50:43;;;;;;;13.87;13.27;;;10.40;99.90;;;;;;5062781;28;20504;-77
2021/05/18 04:53:15;;;;;;;13.90;13.30;;;10.40;99.90;;;;;;5064965;28;20595;-75
2021/05/18 05:01:14;;;;;;;13.13;12.53;;;10.40;99.90;;;;;;5058356;28;20499;-74
2021/05/18 05:04:02;;;;;;;13.77;13.17;;;10.40;99.90;;;;;;5056919;28;20502;-75
2021/05/18 05:06:35;;;;;;;13.00;12.50;;;10.50;99.90;;;;;;5054798;28;20484;-74
2021/05/18 05:09:10;;;;;;;12.67;12.17;;;10.60;99.90;;;;;;5061049;28;20847;-76
2021/05/18 05:14:36;;;;;;;13.27;12.67;;;10.50;99.90;;;;;;5059994;28;20541;-76
2021/05/18 05:17:02;;;;;;;13.00;12.50;;;10.60;99.90;;;;;;5061926;28;20463;-74
2021/05/18 05:19:29;;;;;;;13.80;13.20;;;10.70;99.90;;;;;;5059505;28;20486;-74
2021/05/18 05:21:57;;;;;;;13.03;12.43;;;10.80;99.90;;;;;;5052691;28;20577;-74
2021/05/18 05:24:24;;;;;;;13.70;13.10;;;10.80;99.90;;;;;;5051370;28;20974;-76
2021/05/18 05:26:52;;;;;;;12.77;12.27;;;10.90;99.90;;;;;;5060939;28;20464;-77
2021/05/18 05:29:19;;;;;;;14.40;13.80;;;10.90;99.90;;;;;;5065253;28;21003;-79
2021/05/18 05:31:46;;;;;;;13.87;13.27;;;11.00;99.90;;;;;;5061272;28;20543;-76
2021/05/18 05:34:13;;;;;;;14.60;14.00;;;11.00;99.90;;;;;;5055490;28;20546;-74
2021/05/18 05:36:39;;;;;;;14.40;13.80;;;11.00;99.90;;;;;;5050755;28;20821;-76
2021/05/18 05:39:09;;;;;;;13.93;13.33;;;11.00;99.90;;;;;;5054852;28;20718;-74
2021/05/18 05:41:35;;;;;;;14.03;13.43;;;10.90;99.90;;;;;;5060996;28;20607;-75
2021/05/18 05:44:04;;;;;;;14.00;13.40;;;10.80;99.90;;;;;;5064249;28;20716;-74
2021/05/18 05:46:30;;;;;;;14.70;14.10;;;10.90;99.90;;;;;;5062555;28;20642;-75
2021/05/18 05:48:57;;;;;;;14.70;14.10;;;10.90;99.90;;;;;;5057028;28;20545;-74
2021/05/18 05:51:25;;;;;;;16.57;15.60;;;11.10;99.90;;;;;;5062025;28;20474;-75
2021/05/18 05:53:53;;;;;;;14.10;13.50;;;11.10;99.90;;;;;;5053297;28;20491;-75
2021/05/18 05:56:19;;;;;;;13.90;13.30;;;11.20;99.90;;;;;;5060489;28;20464;-74
2021/05/18 05:58:47;;;;;;;12.70;12.20;;;11.20;99.90;;;;;;5057409;28;20488;-73
2021/05/18 06:01:14;;;;;;;12.17;11.67;;;11.10;99.90;;;;;;5055714;28;21074;-75
2021/05/18 06:03:41;;;;;;;12.20;11.70;;;11.00;99.90;;;;;;5057024;28;20601;-73
2021/05/18 06:06:08;;;;;;;11.67;11.17;;;11.10;99.90;;;;;;5058888;28;20467;-74
2021/05/18 06:08:38;;;;;;;11.53;11.03;;;11.20;99.90;;;;;;5048619;28;20470;-73
2021/05/18 06:11:09;;;;;;;11.87;11.37;;;11.30;99.90;;;;;;5060789;28;20473;-74
2021/05/18 06:13:47;;;;;;;29.57;12.13;;;11.20;99.90;;;;;;5060546;28;20515;-76
2021/05/18 06:16:46;;;;;;;11.70;11.20;;;11.20;99.90;;;;;;5054896;28;20977;-76
2021/05/18 06:41:46;;;;;;;40.67;27.27;;;11.50;99.90;;;;;;5063091;28;20482;-77
2021/05/18 06:47:05;;;;;;;30.83;26.40;;;11.50;99.90;;;;;;5062070;28;20590;-75
2021/05/18 06:49:36;;;;;;;41.17;29.10;;;11.70;99.90;;;;;;5056092;28;20495;-75
2021/05/18 06:52:03;;;;;;;30.17;26.83;;;11.90;99.90;;;;;;5062077;28;20473;-76
2021/05/18 06:54:30;;;;;;;29.20;26.10;;;12.10;99.90;;;;;;5058863;28;20592;-78
2021/05/18 06:57:00;;;;;;;30.93;26.10;;;12.20;99.90;;;;;;5062710;28;20473;-75
2021/05/18 07:02:11;;;;;;;33.17;26.80;;;12.50;99.90;;;;;;5059752;28;20571;-74
2021/05/18 07:04:39;;;;;;;30.57;25.30;;;12.50;99.90;;;;;;5055201;28;20533;-77
2021/05/18 07:07:15;;;;;;;30.63;27.37;;;12.40;99.90;;;;;;5059882;28;20490;-76
2021/05/18 07:09:41;;;;;;;39.77;28.80;;;12.60;99.90;;;;;;5059932;28;20469;-73
2021/05/18 07:12:08;;;;;;;31.87;27.63;;;12.50;99.90;;;;;;5044314;28;20482;-74
2021/05/18 07:14:35;;;;;;;31.53;28.03;;;12.70;99.90;;;;;;5051105;28;21074;-74
2021/05/18 07:17:02;;;;;;;33.67;30.33;;;12.80;99.90;;;;;;5047524;28;20452;-74
2021/05/18 07:19:28;;;;;;;32.53;27.93;;;12.80;99.90;;;;;;5052883;28;20467;-74
2021/05/18 07:21:55;;;;;;;33.77;28.40;;;12.90;99.90;;;;;;5054621;28;20573;-73
2021/05/18 07:24:25;;;;;;;28.60;25.97;;;13.00;99.90;;;;;;5055451;28;20454;-77
2021/05/18 07:26:51;;;;;;;33.27;26.93;;;12.90;99.90;;;;;;5052889;28;20557;-74
2021/05/18 07:29:19;;;;;;;27.47;24.73;;;12.90;99.90;;;;;;5055396;28;20463;-74
2021/05/18 07:31:45;;;;;;;28.03;25.13;;;12.80;99.90;;;;;;5050599;28;20468;-77
2021/05/18 07:34:11;;;;;;;26.07;23.73;;;12.70;99.90;;;;;;5046019;28;20498;-78
2021/05/18 07:36:38;;;;;;;27.30;23.00;;;12.90;99.90;;;;;;5054670;28;20467;-77
2021/05/18 07:39:06;;;;;;;25.73;23.20;;;12.90;99.90;;;;;;5050741;28;20459;-74
2021/05/18 07:41:33;;;;;;;25.57;23.07;;;12.90;99.90;;;;;;5053762;28;20506;-74
2021/05/18 07:43:59;;;;;;;24.30;22.07;;;13.20;99.90;;;;;;5053725;28;20489;-74
2021/05/18 07:46:26;;;;;;;24.73;21.80;;;13.40;99.90;;;;;;5053198;28;20470;-78
2021/05/18 07:59:51;;;;;;;24.70;22.27;;;13.90;99.90;;;;;;5055300;28;20503;-74
2021/05/18 08:02:32;;;;;;;22.53;20.27;;;13.70;99.90;;;;;;5051480;28;21014;-73
2021/05/18 08:07:43;;;;;;;23.87;21.83;;;13.70;99.90;;;;;;5051523;28;20555;-74
2021/05/18 08:10:13;;;;;;;26.87;24.17;;;14.00;99.90;;;;;;5051144;28;20973;-75
2021/05/18 08:12:40;;;;;;;26.63;23.63;;;14.20;99.90;;;;;;5048812;28;20596;-73
2021/05/18 08:18:04;;;;;;;25.63;23.03;;;14.40;99.90;;;;;;5054739;28;20463;-73
2021/05/18 08:20:47;;;;;;;27.40;24.40;;;14.40;99.90;;;;;;5057610;28;20550;-74
2021/05/18 10:37:23;;;;;;;19.90;18.43;;;17.20;99.90;;;;;;5056282;28;20490;-75
2021/05/18 10:40:32;;;;;;;20.43;19.00;;;18.00;99.90;;;;;;5058117;28;20465;-74
2021/05/18 10:43:08;;;;;;;20.87;19.33;;;18.10;99.90;;;;;;5052144;28;20516;-78
2021/05/18 10:46:10;;;;;;;21.10;19.60;;;17.90;99.90;;;;;;5049738;28;20465;-75
2021/05/18 10:49:06;;;;;;;20.40;19.00;;;17.80;99.90;;;;;;5055731;28;20569;-74
2021/05/18 10:51:40;;;;;;;20.93;19.50;;;17.70;99.90;;;;;;5057826;28;20565;-74
2021/05/18 10:54:27;;;;;;;20.60;19.10;;;17.50;99.90;;;;;;5061299;28;20470;-74
2021/05/18 10:57:17;;;;;;;19.90;18.60;;;17.60;99.90;;;;;;5053513;28;20469;-75
2021/05/18 10:59:51;;;;;;;19.70;18.27;;;18.40;99.90;;;;;;5058513;28;20471;-74
2021/05/18 11:02:20;;;;;;;20.97;19.27;;;18.60;99.90;;;;;;5054720;28;20490;-75
2021/05/18 11:04:49;;;;;;;19.80;18.60;;;18.10;99.90;;;;;;5059040;28;20465;-75
2021/05/18 11:07:19;;;;;;;19.97;18.70;;;17.90;99.90;;;;;;5054039;28;20490;-74
2021/05/18 11:09:46;;;;;;;19.83;18.43;;;18.50;99.90;;;;;;5054515;28;21032;-74
2021/05/18 11:12:15;;;;;;;19.63;18.37;;;19.60;99.90;;;;;;5055201;28;20765;-74
2021/05/18 11:14:44;;;;;;;19.97;18.63;;;20.20;99.90;;;;;;5058899;28;20469;-74
2021/05/18 11:17:16;;;;;;;20.03;18.07;;;20.20;99.90;;;;;;5056688;28;20458;-75
2021/05/18 11:20:05;;;;;;;20.53;19.33;;;20.50;99.90;;;;;;5054759;28;20465;-74
2021/05/18 11:25:42;;;;;;;19.33;18.33;;;20.00;99.90;;;;;;5053017;28;20513;-73
2021/05/18 11:28:11;;;;;;;18.33;17.33;;;20.40;99.90;;;;;;5053273;28;20562;-73
2021/05/18 11:30:38;;;;;;;19.63;18.30;;;19.70;99.90;;;;;;5052768;28;20464;-73
2021/05/18 11:33:06;;;;;;;19.37;18.27;;;19.30;99.90;;;;;;5055609;28;20568;-73
2021/05/18 11:35:33;;;;;;;18.57;17.57;;;19.60;99.90;;;;;;5053514;28;20463;-73
2021/05/18 11:38:06;;;;;;;19.67;18.47;;;19.50;99.90;;;;;;5049570;28;20463;-73
2021/05/18 11:40:47;;;;;;;18.47;17.57;;;19.80;99.90;;;;;;5049629;28;20685;-73
2021/05/18 11:43:22;;;;;;;19.60;18.60;;;20.50;99.90;;;;;;5049747;28;20506;-73
2021/05/18 11:45:51;;;;;;;19.17;18.10;;;20.90;99.90;;;;;;5049707;28;20451;-72
2021/05/18 11:48:19;;;;;;;19.00;18.00;;;21.30;99.90;;;;;;5049025;28;20468;-73
2021/05/18 11:50:59;;;;;;;18.50;17.53;;;22.00;99.90;;;;;;5053705;28;20461;-73
2021/05/18 11:53:31;;;;;;;18.87;17.77;;;22.90;99.90;;;;;;5055846;28;20470;-73
2021/05/18 11:55:58;;;;;;;19.23;18.03;;;23.30;98.90;;;;;;5051869;28;20456;-72
2021/05/18 11:58:25;;;;;;;19.10;17.73;;;23.20;99.90;;;;;;5051828;28;20467;-73
2021/05/18 12:00:51;;;;;;;19.23;18.13;;;23.30;99.70;;;;;;5051041;28;20459;-72
2021/05/18 12:03:18;;;;;;;19.23;18.23;;;22.40;99.90;;;;;;5054344;28;20466;-73
2021/05/18 12:05:53;;;;;;;19.43;18.17;;;22.40;99.90;;;;;;5057383;28;20455;-73
2021/05/18 12:08:27;;;;;;;19.80;18.50;;;22.20;99.10;;;;;;5053520;28;20469;-72
2021/05/18 12:10:53;;;;;;;19.37;18.37;;;21.50;98.50;;;;;;5056438;28;20897;-72
2021/05/18 12:13:38;;;;;;;20.47;19.07;;;21.00;99.90;;;;;;5051886;28;20471;-72
2021/05/18 12:16:05;;;;;;;23.83;22.00;;;20.00;99.90;;;;;;5052063;28;20464;-72
2021/05/18 12:18:34;;;;;;;21.40;20.10;;;18.60;99.90;;;;;;5056563;28;20470;-72
2021/05/18 12:21:02;;;;;;;22.37;21.07;;;17.00;99.90;;;;;;5051264;28;20727;-73
2021/05/18 12:23:29;;;;;;;21.17;19.87;;;16.00;99.90;;;;;;5052843;28;20474;-72
2021/05/18 12:26:12;;;;;;;21.50;20.20;;;15.60;99.90;;;;;;5053131;28;20466;-72
2021/05/18 12:28:38;;;;;;;21.70;20.30;;;14.70;99.90;;;;;;5049712;28;20463;-71
2021/05/18 12:31:07;;;;;;;22.80;21.10;;;14.20;99.90;;;;;;5061270;28;20459;-71
2021/05/18 12:33:35;;;;;;;22.07;20.67;;;14.00;99.90;;;;;;5060486;28;20467;-73
2021/05/18 12:36:06;;;;;;;22.10;20.70;;;14.10;99.90;;;;;;5055894;28;20454;-72
2021/05/18 12:38:33;;;;;;;20.73;19.53;;;14.50;99.90;;;;;;5052670;28;20581;-72
2021/05/18 12:41:05;;;;;;;20.57;19.33;;;14.60;99.90;;;;;;5058112;28;20487;-71
2021/05/18 12:43:42;;;;;;;22.70;21.20;;;14.80;99.90;;;;;;5047949;28;20485;-73
2021/05/18 12:46:10;;;;;;;21.10;19.60;;;15.20;99.90;;;;;;5054596;28;21060;-72
2021/05/18 12:48:39;;;;;;;22.00;20.50;;;15.50;99.90;;;;;;5057270;28;20501;-72
2021/05/18 12:51:19;;;;;;;21.70;20.40;;;15.90;99.90;;;;;;5057894;28;20727;-71
2021/05/18 12:53:46;;;;;;;21.20;19.70;;;17.40;99.90;;;;;;5058574;28;20459;-72
2021/05/18 12:56:28;;;;;;;21.27;19.97;;;18.00;99.90;;;;;;5050540;28;20463;-72
2021/05/18 12:59:04;;;;;;;19.27;18.17;;;18.80;99.90;;;;;;5048945;28;20953;-72
2021/05/18 13:01:40;;;;;;;20.30;19.03;;;20.50;99.90;;;;;;5047904;28;20483;-72
2021/05/18 13:04:12;;;;;;;19.73;18.53;;;20.20;99.90;;;;;;5052027;28;20467;-72
2021/05/18 13:06:44;;;;;;;22.83;21.43;;;19.10;99.90;;;;;;5057670;28;20996;-72
2021/05/18 13:09:17;;;;;;;22.93;21.50;;;18.20;99.90;;;;;;5052242;28;20470;-72
2021/05/18 13:14:48;;;;;;;24.00;22.20;;;18.60;99.90;;;;;;5054305;28;20469;-72
2021/05/18 13:17:15;;;;;;;23.13;21.67;;;18.20;99.90;;;;;;5055738;28;20466;-72
2021/05/18 13:19:42;;;;;;;24.60;22.90;;;18.10;99.90;;;;;;5051766;28;20493;-73
2021/05/18 13:22:09;;;;;;;31.63;29.43;;;17.60;99.90;;;;;;5057881;28;20490;-72
2021/05/18 13:27:22;;;;;;;29.87;27.77;;;16.90;99.90;;;;;;5019926;28;20923;-73
2021/05/18 13:29:48;;;;;;;30.73;28.13;;;16.90;99.90;;;;;;5053109;28;20463;-73
2021/05/18 13:32:14;;;;;;;28.47;26.13;;;17.70;99.90;;;;;;5057216;28;20470;-73
2021/05/18 13:34:42;;;;;;;24.10;22.40;;;18.30;99.90;;;;;;5052911;28;20460;-73
2021/05/18 13:37:09;;;;;;;21.93;20.53;;;19.20;99.90;;;;;;5057654;28;20463;-74
2021/05/18 13:39:35;;;;;;;23.53;22.03;;;19.30;99.90;;;;;;5055669;28;20463;-73
2021/05/18 13:42:02;;;;;;;22.97;21.37;;;19.70;99.90;;;;;;5052818;28;20487;-73
2021/05/18 13:44:28;;;;;;;22.57;21.10;;;20.50;99.90;;;;;;5052482;28;20452;-74
2021/05/18 13:46:55;;;;;;;58.77;33.13;;;20.30;99.90;;;;;;5050459;28;20506;-72
2021/05/18 13:49:21;;;;;;;30.80;28.30;;;18.80;99.90;;;;;;5055585;28;20899;-72
2021/05/18 13:51:48;;;;;;;27.93;25.73;;;14.90;99.90;;;;;;5047597;28;20455;-73
2021/05/18 13:54:15;;;;;;;25.50;23.60;;;12.50;99.90;;;;;;5058296;28;20470;-74
2021/05/18 13:56:42;;;;;;;23.20;21.60;;;12.10;99.90;;;;;;5049159;28;20463;-74
2021/05/18 13:59:08;;;;;;;21.70;20.20;;;12.10;99.90;;;;;;5052055;28;20519;-74
2021/05/18 14:01:34;;;;;;;20.83;19.43;;;12.20;99.90;;;;;;5054486;28;20486;-74
2021/05/18 14:04:01;;;;;;;20.40;19.10;;;12.40;99.90;;;;;;5058747;28;21036;-73
2021/05/18 14:06:30;;;;;;;20.63;19.43;;;12.40;99.90;;;;;;5061157;28;20451;-73
2021/05/18 14:08:57;;;;;;;20.70;19.50;;;12.50;99.90;;;;;;5056906;28;20541;-73
2021/05/18 14:11:24;;;;;;;19.60;18.40;;;12.50;99.90;;;;;;5051233;28;20479;-73
2021/05/18 14:13:52;;;;;;;18.20;17.20;;;12.60;99.90;;;;;;5051623;28;20501;-72
2021/05/18 14:19:10;;;;;;;14.63;13.93;;;13.40;99.90;;;;;;5034963;28;20596;-75
2021/05/18 14:21:36;;;;;;;14.13;13.53;;;14.10;99.90;;;;;;5058025;28;20495;-74
2021/05/18 14:24:11;;;;;;;14.43;13.83;;;14.50;99.90;;;;;;5055800;28;20710;-73
2021/05/18 14:26:38;;;;;;;14.77;14.07;;;14.70;99.90;;;;;;5054579;28;20985;-72
2021/05/18 14:29:04;;;;;;;15.20;14.50;;;15.00;99.90;;;;;;5053981;28;20966;-73
2021/05/18 14:31:31;;;;;;;15.60;14.90;;;15.20;99.90;;;;;;5050041;28;20508;-73
2021/05/18 14:33:58;;;;;;;17.80;16.90;;;15.60;99.90;;;;;;5053782;28;20542;-73
2021/05/18 14:36:24;;;;;;;17.50;16.60;;;15.80;99.90;;;;;;5051951;28;20745;-74
2021/05/18 14:38:51;;;;;;;17.90;17.00;;;16.00;99.90;;;;;;5055077;28;20463;-73
2021/05/18 14:44:15;;;;;;;18.90;17.90;;;17.60;99.90;;;;;;5051566;28;20562;-75
2021/05/18 14:46:49;;;;;;;19.60;18.60;;;19.00;99.90;;;;;;5056305;28;21034;-74
2021/05/18 14:54:54;;;;;;;19.30;18.30;;;19.50;99.90;;;;;;5059720;28;20475;-72
2021/05/18 14:57:22;;;;;;;18.90;17.90;;;19.70;99.90;;;;;;5053359;28;20977;-73
2021/05/18 14:59:48;;;;;;;19.63;18.57;;;20.40;99.90;;;;;;5053881;28;20463;-73
2021/05/18 15:02:14;;;;;;;19.60;18.60;;;19.90;99.90;;;;;;5056762;28;20489;-75
2021/05/18 15:04:41;;;;;;;18.87;17.87;;;19.70;99.90;;;;;;5056911;28;20501;-72
2021/05/18 15:07:07;;;;;;;19.57;18.57;;;19.60;99.90;;;;;;5055212;28;20467;-75
2021/05/18 15:09:35;;;;;;;22.50;21.10;;;19.30;99.90;;;;;;5059828;28;20463;-72
2021/05/18 15:12:02;;;;;;;25.70;23.90;;;18.90;99.90;;;;;;5059798;28;20465;-72
2021/05/18 15:14:30;;;;;;;25.53;23.73;;;18.30;99.90;;;;;;5055695;28;20520;-72
2021/05/18 15:16:57;;;;;;;25.00;23.30;;;17.40;99.90;;;;;;5058896;28;20512;-72
2021/05/18 15:19:24;;;;;;;24.23;22.63;;;16.80;99.90;;;;;;5060920;28;20851;-71
2021/05/18 15:21:51;;;;;;;23.60;22.07;;;16.50;99.90;;;;;;5058500;28;20958;-73
2021/05/18 15:24:17;;;;;;;21.93;20.53;;;15.90;99.90;;;;;;5052124;28;20462;-72
2021/05/18 15:26:46;;;;;;;22.57;21.10;;;15.50;99.90;;;;;;5048591;28;20472;-71
2021/05/18 15:29:12;;;;;;;22.43;21.03;;;15.30;99.90;;;;;;5052690;28;20485;-70
2021/05/18 15:31:40;;;;;;;22.70;21.20;;;15.00;99.90;;;;;;5053981;28;20451;-72
2021/05/18 15:34:06;;;;;;;23.27;21.77;;;15.20;99.90;;;;;;5052732;28;20467;-77
2021/05/18 15:36:33;;;;;;;22.00;20.60;;;15.50;99.90;;;;;;5050019;28;20478;-73
2021/05/18 15:38:59;;;;;;;21.90;20.60;;;16.30;99.90;;;;;;5046923;28;20468;-72
2021/05/18 15:41:25;;;;;;;21.80;20.50;;;17.30;99.90;;;;;;5052961;28;20487;-72
2021/05/18 15:43:53;;;;;;;21.07;19.87;;;17.60;99.90;;;;;;5054177;28;20612;-73
2021/05/18 15:46:32;;;;;;;20.30;19.10;;;17.50;99.90;;;;;;5056362;28;20458;-74
2021/05/18 15:48:59;;;;;;;20.13;19.03;;;17.50;99.90;;;;;;5048423;28;20930;-72
2021/05/18 15:51:52;;;;;;;19.23;18.13;;;17.10;99.90;;;;;;5056667;28;20460;-73
2021/05/18 15:54:19;;;;;;;19.33;18.33;;;17.00;99.90;;;;;;5041458;28;20470;-76
2021/05/18 15:56:45;;;;;;;18.90;17.90;;;17.10;99.90;;;;;;5055345;28;20467;-75
2021/05/18 15:59:12;;;;;;;19.10;18.10;;;17.20;99.90;;;;;;5053122;28;20500;-76
2021/05/18 16:01:39;;;;;;;20.17;19.07;;;17.80;99.90;;;;;;5062535;28;20753;-73
2021/05/18 16:04:07;;;;;;;19.80;18.70;;;18.50;99.90;;;;;;5056152;28;20857;-72
2021/05/18 16:06:39;;;;;;;18.73;17.63;;;18.80;99.90;;;;;;5051178;28;20513;-73
2021/05/18 16:09:27;;;;;;;19.20;18.10;;;19.30;99.90;;;;;;5058395;28;20480;-73
2021/05/18 16:11:54;;;;;;;18.70;17.70;;;20.80;99.90;;;;;;5052619;28;20468;-73
2021/05/18 16:14:20;;;;;;;18.83;17.83;;;21.40;99.90;;;;;;5061718;28;20467;-73
2021/05/18 16:16:52;;;;;;;18.10;17.10;;;21.60;99.90;;;;;;5054079;28;20518;-75
2021/05/18 16:19:26;;;;;;;17.90;17.00;;;22.50;99.90;;;;;;5055437;28;20714;-73
2021/05/18 16:21:53;;;;;;;21.87;20.13;;;22.70;99.90;;;;;;5056114;28;20499;-73
2021/05/18 16:24:20;;;;;;;24.47;22.67;;;22.10;99.90;;;;;;5058883;28;20474;-73
2021/05/18 16:26:47;;;;;;;25.47;23.77;;;20.70;99.90;;;;;;5058384;28;20482;-73
2021/05/18 16:29:14;;;;;;;25.37;23.67;;;19.10;99.90;;;;;;5061030;28;20545;-73
2021/05/18 16:31:41;;;;;;;25.30;23.37;;;18.90;99.90;;;;;;5061362;28;20459;-73
2021/05/18 16:34:07;;;;;;;24.47;22.77;;;19.00;99.90;;;;;;5056917;28;20464;-76
2021/05/18 16:36:34;;;;;;;23.53;22.03;;;18.70;99.90;;;;;;5055175;28;20549;-76
2021/05/18 16:39:01;;;;;;;25.50;23.50;;;18.40;99.90;;;;;;5056844;28;20813;-72
2021/05/18 16:41:27;;;;;;;30.77;28.60;;;18.50;99.90;;;;;;5059132;28;20566;-72
2021/05/18 16:43:54;;;;;;;32.20;29.83;;;18.70;99.90;;;;;;5062096;28;20517;-71
2021/05/18 16:46:20;;;;;;;30.37;28.37;;;18.50;99.90;;;;;;5066605;28;20972;-71
2021/05/18 16:48:46;;;;;;;28.63;26.63;;;17.70;99.90;;;;;;5062412;28;20486;-73
2021/05/18 16:51:13;;;;;;;30.60;28.47;;;17.50;99.90;;;;;;5059003;28;20964;-72
2021/05/18 16:53:41;;;;;;;27.13;25.33;;;17.80;99.90;;;;;;5055840;28;20825;-72
2021/05/18 16:56:09;;;;;;;24.47;22.80;;;18.70;99.90;;;;;;5062063;28;21060;-71
2021/05/18 16:58:36;;;;;;;23.17;21.80;;;19.30;99.90;;;;;;5063972;28;20467;-73
2021/05/18 17:01:04;;;;;;;21.50;20.20;;;19.90;99.90;;;;;;5062090;28;20463;-75
2021/05/18 17:03:30;;;;;;;21.23;19.93;;;20.20;99.90;;;;;;5054836;28;20498;-73
2021/05/18 17:05:59;;;;;;;21.17;19.80;;;19.90;99.90;;;;;;5058880;28;20456;-72
2021/05/18 17:08:26;;;;;;;21.17;19.77;;;20.30;99.90;;;;;;5059531;28;20467;-73